sensor_id;sensor_type;location;lat;lon;timestamp;temperature;humidity
12847;DHT22;6492;48.128;8.320;2023-05-20T00:04:00;8.40;44.60
12847;DHT22;6492;48.128;8.320;2023-05-20T00:08:03;8.40;43.70
12847;DHT22;6492;48.128;8.320;2023-05-20T00:12:08;8.40;43.40
12847;DHT22;6492;48.128;8.320;2023-05-20T00:16:10;8.50;43.40
12847;DHT22;6492;48.128;8.320;2023-05-20T00:20:12;8.50;42.90
12847;DHT22;6492;48.128;8.320;2023-05-20T00:24:15;8.50;42.80
12847;DHT22;6492;48.128;8.320;2023-05-20T00:28:17;8.50;42.60
12847;DHT22;6492;48.128;8.320;2023-05-20T00:32:20;8.50;42.50
12847;DHT22;6492;48.128;8.320;2023-05-20T00:36:30;8.50;42.00
12847;DHT22;6492;48.128;8.320;2023-05-20T00:40:33;8.50;41.80
12847;DHT22;6492;48.128;8.320;2023-05-20T00:44:35;8.50;41.40
12847;DHT22;6492;48.128;8.320;2023-05-20T00:48:40;8.50;41.70
12847;DHT22;6492;48.128;8.320;2023-05-20T00:52:43;8.50;40.50
12847;DHT22;6492;48.128;8.320;2023-05-20T00:56:48;8.50;40.30
12847;DHT22;6492;48.128;8.320;2023-05-20T01:00:51;8.50;40.00
12847;DHT22;6492;48.128;8.320;2023-05-20T01:04:53;8.50;39.90
12847;DHT22;6492;48.128;8.320;2023-05-20T01:08:58;8.60;39.20
12847;DHT22;6492;48.128;8.320;2023-05-20T01:13:04;8.60;38.70
12847;DHT22;6492;48.128;8.320;2023-05-20T01:17:08;8.50;38.60
12847;DHT22;6492;48.128;8.320;2023-05-20T01:21:43;8.50;38.30
12847;DHT22;6492;48.128;8.320;2023-05-20T01:25:47;8.50;38.20
12847;DHT22;6492;48.128;8.320;2023-05-20T01:29:50;8.40;38.50
12847;DHT22;6492;48.128;8.320;2023-05-20T01:33:55;8.40;38.90
12847;DHT22;6492;48.128;8.320;2023-05-20T01:37:59;8.40;39.10
12847;DHT22;6492;48.128;8.320;2023-05-20T01:42:04;8.40;39.80
12847;DHT22;6492;48.128;8.320;2023-05-20T01:46:06;8.40;40.00
12847;DHT22;6492;48.128;8.320;2023-05-20T01:50:08;8.40;39.90
12847;DHT22;6492;48.128;8.320;2023-05-20T01:54:10;8.40;40.10
12847;DHT22;6492;48.128;8.320;2023-05-20T01:58:13;8.40;40.30
12847;DHT22;6492;48.128;8.320;2023-05-20T02:02:15;8.40;40.60
12847;DHT22;6492;48.128;8.320;2023-05-20T02:06:17;8.30;41.20
12847;DHT22;6492;48.128;8.320;2023-05-20T02:10:19;8.40;41.30
12847;DHT22;6492;48.128;8.320;2023-05-20T02:14:22;8.30;41.40
12847;DHT22;6492;48.128;8.320;2023-05-20T02:18:24;8.30;41.90
12847;DHT22;6492;48.128;8.320;2023-05-20T02:22:25;8.30;42.40
12847;DHT22;6492;48.128;8.320;2023-05-20T02:26:27;8.30;42.50
12847;DHT22;6492;48.128;8.320;2023-05-20T02:30:30;8.40;42.70
12847;DHT22;6492;48.128;8.320;2023-05-20T02:34:32;8.40;42.80
12847;DHT22;6492;48.128;8.320;2023-05-20T02:38:35;8.40;43.20
12847;DHT22;6492;48.128;8.320;2023-05-20T02:42:46;8.40;43.20
12847;DHT22;6492;48.128;8.320;2023-05-20T02:46:49;8.40;42.80
12847;DHT22;6492;48.128;8.320;2023-05-20T02:50:51;8.40;42.90
12847;DHT22;6492;48.128;8.320;2023-05-20T02:54:53;8.40;43.40
12847;DHT22;6492;48.128;8.320;2023-05-20T02:58:55;8.40;44.30
12847;DHT22;6492;48.128;8.320;2023-05-20T03:02:58;8.30;44.60
12847;DHT22;6492;48.128;8.320;2023-05-20T03:07:00;8.30;45.20
12847;DHT22;6492;48.128;8.320;2023-05-20T03:11:02;8.30;46.00
12847;DHT22;6492;48.128;8.320;2023-05-20T03:15:05;8.30;46.30
12847;DHT22;6492;48.128;8.320;2023-05-20T03:19:08;8.30;46.70
12847;DHT22;6492;48.128;8.320;2023-05-20T03:23:10;8.30;47.10
12847;DHT22;6492;48.128;8.320;2023-05-20T03:27:12;8.30;47.40
12847;DHT22;6492;48.128;8.320;2023-05-20T03:31:13;8.30;48.10
12847;DHT22;6492;48.128;8.320;2023-05-20T03:35:17;8.30;48.20
12847;DHT22;6492;48.128;8.320;2023-05-20T03:39:18;8.30;48.60
12847;DHT22;6492;48.128;8.320;2023-05-20T03:43:20;8.30;49.00
12847;DHT22;6492;48.128;8.320;2023-05-20T03:47:22;8.30;49.30
12847;DHT22;6492;48.128;8.320;2023-05-20T03:51:25;8.30;49.60
12847;DHT22;6492;48.128;8.320;2023-05-20T03:55:27;8.30;50.30
12847;DHT22;6492;48.128;8.320;2023-05-20T03:59:29;8.30;51.20
12847;DHT22;6492;48.128;8.320;2023-05-20T04:03:31;8.30;51.40
12847;DHT22;6492;48.128;8.320;2023-05-20T04:07:34;8.30;51.70
12847;DHT22;6492;48.128;8.320;2023-05-20T04:11:36;8.30;52.40
12847;DHT22;6492;48.128;8.320;2023-05-20T04:15:38;8.40;52.80
12847;DHT22;6492;48.128;8.320;2023-05-20T04:19:40;8.50;53.20
12847;DHT22;6492;48.128;8.320;2023-05-20T04:23:45;8.50;53.60
12847;DHT22;6492;48.128;8.320;2023-05-20T04:27:47;8.60;53.40
12847;DHT22;6492;48.128;8.320;2023-05-20T04:31:49;8.60;53.40
12847;DHT22;6492;48.128;8.320;2023-05-20T04:36:08;8.60;53.40
12847;DHT22;6492;48.128;8.320;2023-05-20T04:40:13;8.60;53.70
12847;DHT22;6492;48.128;8.320;2023-05-20T04:44:15;8.60;54.10
12847;DHT22;6492;48.128;8.320;2023-05-20T04:48:17;8.60;54.60
12847;DHT22;6492;48.128;8.320;2023-05-20T04:52:18;8.70;55.00
12847;DHT22;6492;48.128;8.320;2023-05-20T04:56:21;8.60;55.10
12847;DHT22;6492;48.128;8.320;2023-05-20T05:00:23;8.70;55.40
12847;DHT22;6492;48.128;8.320;2023-05-20T05:04:25;8.80;55.60
12847;DHT22;6492;48.128;8.320;2023-05-20T05:08:27;8.80;55.50
12847;DHT22;6492;48.128;8.320;2023-05-20T05:13:04;8.90;55.10
12847;DHT22;6492;48.128;8.320;2023-05-20T05:17:06;8.90;54.70
12847;DHT22;6492;48.128;8.320;2023-05-20T05:21:07;9.00;54.50
12847;DHT22;6492;48.128;8.320;2023-05-20T05:25:10;9.10;54.60
12847;DHT22;6492;48.128;8.320;2023-05-20T05:29:13;9.10;54.20
12847;DHT22;6492;48.128;8.320;2023-05-20T05:33:16;9.20;54.00
12847;DHT22;6492;48.128;8.320;2023-05-20T05:37:18;9.30;53.90
12847;DHT22;6492;48.128;8.320;2023-05-20T05:41:20;9.30;53.40
12847;DHT22;6492;48.128;8.320;2023-05-20T05:45:23;9.40;53.00
12847;DHT22;6492;48.128;8.320;2023-05-20T05:49:25;9.40;52.50
12847;DHT22;6492;48.128;8.320;2023-05-20T05:53:27;9.50;52.90
12847;DHT22;6492;48.128;8.320;2023-05-20T05:57:29;9.50;52.90
12847;DHT22;6492;48.128;8.320;2023-05-20T06:01:32;9.50;53.40
12847;DHT22;6492;48.128;8.320;2023-05-20T06:05:36;9.60;53.10
12847;DHT22;6492;48.128;8.320;2023-05-20T06:09:40;9.80;53.10
12847;DHT22;6492;48.128;8.320;2023-05-20T06:13:41;9.90;52.50
12847;DHT22;6492;48.128;8.320;2023-05-20T06:17:44;10.00;50.60
12847;DHT22;6492;48.128;8.320;2023-05-20T06:21:46;10.00;50.60
12847;DHT22;6492;48.128;8.320;2023-05-20T06:25:59;10.00;50.60
12847;DHT22;6492;48.128;8.320;2023-05-20T06:30:05;10.10;50.50
12847;DHT22;6492;48.128;8.320;2023-05-20T06:34:11;10.00;50.10
12847;DHT22;6492;48.128;8.320;2023-05-20T06:38:43;10.10;49.80
12847;DHT22;6492;48.128;8.320;2023-05-20T06:42:45;10.00;50.00
12847;DHT22;6492;48.128;8.320;2023-05-20T06:46:47;10.00;50.30
12847;DHT22;6492;48.128;8.320;2023-05-20T06:50:50;10.00;51.00
12847;DHT22;6492;48.128;8.320;2023-05-20T06:55:05;10.00;51.60
12847;DHT22;6492;48.128;8.320;2023-05-20T06:59:34;10.00;50.50
12847;DHT22;6492;48.128;8.320;2023-05-20T07:03:36;10.00;51.30
12847;DHT22;6492;48.128;8.320;2023-05-20T07:07:39;10.20;51.30
12847;DHT22;6492;48.128;8.320;2023-05-20T07:11:42;10.20;50.70
12847;DHT22;6492;48.128;8.320;2023-05-20T07:15:57;10.40;50.10
12847;DHT22;6492;48.128;8.320;2023-05-20T07:19:59;10.50;49.00
12847;DHT22;6492;48.128;8.320;2023-05-20T07:24:02;10.70;47.10
12847;DHT22;6492;48.128;8.320;2023-05-20T07:28:20;10.80;46.20
12847;DHT22;6492;48.128;8.320;2023-05-20T07:32:22;11.00;44.20
12847;DHT22;6492;48.128;8.320;2023-05-20T07:36:25;11.20;43.20
12847;DHT22;6492;48.128;8.320;2023-05-20T07:40:29;11.40;41.80
12847;DHT22;6492;48.128;8.320;2023-05-20T07:44:31;11.70;39.90
12847;DHT22;6492;48.128;8.320;2023-05-20T07:48:33;11.90;37.80
12847;DHT22;6492;48.128;8.320;2023-05-20T07:52:35;12.20;36.00
12847;DHT22;6492;48.128;8.320;2023-05-20T07:56:38;12.40;33.90
12847;DHT22;6492;48.128;8.320;2023-05-20T08:00:40;12.60;33.50
12847;DHT22;6492;48.128;8.320;2023-05-20T08:04:42;12.90;30.70
12847;DHT22;6492;48.128;8.320;2023-05-20T08:08:44;13.10;30.30
12847;DHT22;6492;48.128;8.320;2023-05-20T08:12:47;13.20;29.00
12847;DHT22;6492;48.128;8.320;2023-05-20T08:16:51;13.30;29.00
12847;DHT22;6492;48.128;8.320;2023-05-20T08:20:53;13.50;28.50
12847;DHT22;6492;48.128;8.320;2023-05-20T08:24:55;13.80;27.80
12847;DHT22;6492;48.128;8.320;2023-05-20T08:28:58;14.10;25.90
12847;DHT22;6492;48.128;8.320;2023-05-20T08:33:00;14.60;23.60
12847;DHT22;6492;48.128;8.320;2023-05-20T08:37:04;14.90;22.70
12847;DHT22;6492;48.128;8.320;2023-05-20T08:41:06;14.90;20.80
12847;DHT22;6492;48.128;8.320;2023-05-20T08:45:10;14.80;20.90
12847;DHT22;6492;48.128;8.320;2023-05-20T08:49:13;14.60;21.10
12847;DHT22;6492;48.128;8.320;2023-05-20T08:53:14;14.40;22.20
12847;DHT22;6492;48.128;8.320;2023-05-20T08:57:22;14.50;21.90
12847;DHT22;6492;48.128;8.320;2023-05-20T09:01:26;14.60;22.70
12847;DHT22;6492;48.128;8.320;2023-05-20T09:05:28;14.60;22.60
12847;DHT22;6492;48.128;8.320;2023-05-20T09:09:32;15.00;21.30
12847;DHT22;6492;48.128;8.320;2023-05-20T09:13:34;15.20;21.60
12847;DHT22;6492;48.128;8.320;2023-05-20T09:17:37;15.40;20.20
12847;DHT22;6492;48.128;8.320;2023-05-20T09:21:40;15.60;18.00
12847;DHT22;6492;48.128;8.320;2023-05-20T09:25:42;15.60;18.60
12847;DHT22;6492;48.128;8.320;2023-05-20T09:29:44;15.60;18.30
12847;DHT22;6492;48.128;8.320;2023-05-20T09:33:48;15.70;18.40
12847;DHT22;6492;48.128;8.320;2023-05-20T09:38:03;16.00;17.80
12847;DHT22;6492;48.128;8.320;2023-05-20T09:42:10;16.40;16.20
12847;DHT22;6492;48.128;8.320;2023-05-20T09:46:12;16.60;14.90
12847;DHT22;6492;48.128;8.320;2023-05-20T09:50:16;16.80;13.80
12847;DHT22;6492;48.128;8.320;2023-05-20T09:54:21;17.20;13.50
12847;DHT22;6492;48.128;8.320;2023-05-20T09:58:25;17.70;12.20
12847;DHT22;6492;48.128;8.320;2023-05-20T10:02:27;18.10;10.20
12847;DHT22;6492;48.128;8.320;2023-05-20T10:06:59;18.20;9.40
12847;DHT22;6492;48.128;8.320;2023-05-20T10:11:09;18.50;8.90
12847;DHT22;6492;48.128;8.320;2023-05-20T10:15:17;18.60;8.60
12847;DHT22;6492;48.128;8.320;2023-05-20T10:19:28;18.70;7.20
12847;DHT22;6492;48.128;8.320;2023-05-20T10:23:32;19.00;7.00
12847;DHT22;6492;48.128;8.320;2023-05-20T10:27:43;18.80;6.10
12847;DHT22;6492;48.128;8.320;2023-05-20T10:31:48;18.90;7.30
12847;DHT22;6492;48.128;8.320;2023-05-20T10:35:50;19.00;7.40
12847;DHT22;6492;48.128;8.320;2023-05-20T10:40:03;19.60;5.20
12847;DHT22;6492;48.128;8.320;2023-05-20T10:44:06;20.10;4.70
12847;DHT22;6492;48.128;8.320;2023-05-20T10:48:08;20.30;2.60
12847;DHT22;6492;48.128;8.320;2023-05-20T10:52:20;19.90;3.20
12847;DHT22;6492;48.128;8.320;2023-05-20T10:56:25;19.40;4.60
12847;DHT22;6492;48.128;8.320;2023-05-20T11:00:27;19.50;5.20
12847;DHT22;6492;48.128;8.320;2023-05-20T11:04:29;19.60;3.10
12847;DHT22;6492;48.128;8.320;2023-05-20T11:08:32;19.50;3.90
12847;DHT22;6492;48.128;8.320;2023-05-20T11:12:35;19.40;5.60
12847;DHT22;6492;48.128;8.320;2023-05-20T11:16:37;20.10;4.30
12847;DHT22;6492;48.128;8.320;2023-05-20T11:20:38;20.10;3.50
12847;DHT22;6492;48.128;8.320;2023-05-20T11:24:40;20.30;4.50
12847;DHT22;6492;48.128;8.320;2023-05-20T11:28:43;21.00;2.00
12847;DHT22;6492;48.128;8.320;2023-05-20T11:32:56;21.80;1.70
12847;DHT22;6492;48.128;8.320;2023-05-20T11:36:58;22.40;1.00
12847;DHT22;6492;48.128;8.320;2023-05-20T11:41:00;22.80;1.00
12847;DHT22;6492;48.128;8.320;2023-05-20T11:45:04;22.40;1.00
12847;DHT22;6492;48.128;8.320;2023-05-20T11:49:06;21.90;1.00
12847;DHT22;6492;48.128;8.320;2023-05-20T11:53:14;21.40;1.00
12847;DHT22;6492;48.128;8.320;2023-05-20T11:57:16;21.70;1.00
12847;DHT22;6492;48.128;8.320;2023-05-20T12:01:20;22.80;1.00
12847;DHT22;6492;48.128;8.320;2023-05-20T12:05:22;24.00;1.00
12847;DHT22;6492;48.128;8.320;2023-05-20T12:09:24;23.90;1.00
12847;DHT22;6492;48.128;8.320;2023-05-20T12:13:26;23.10;1.00
12847;DHT22;6492;48.128;8.320;2023-05-20T12:17:30;22.50;1.00
12847;DHT22;6492;48.128;8.320;2023-05-20T12:21:32;22.90;1.00
12847;DHT22;6492;48.128;8.320;2023-05-20T12:25:34;23.40;1.00
12847;DHT22;6492;48.128;8.320;2023-05-20T12:29:36;23.50;1.00
12847;DHT22;6492;48.128;8.320;2023-05-20T12:33:39;23.30;1.00
12847;DHT22;6492;48.128;8.320;2023-05-20T12:37:41;22.80;1.00
12847;DHT22;6492;48.128;8.320;2023-05-20T12:41:43;22.80;1.00
12847;DHT22;6492;48.128;8.320;2023-05-20T12:45:45;23.20;1.00
12847;DHT22;6492;48.128;8.320;2023-05-20T12:49:48;22.90;1.00
12847;DHT22;6492;48.128;8.320;2023-05-20T12:53:50;22.60;1.00
12847;DHT22;6492;48.128;8.320;2023-05-20T12:57:53;22.50;1.00
12847;DHT22;6492;48.128;8.320;2023-05-20T13:01:55;22.40;1.00
12847;DHT22;6492;48.128;8.320;2023-05-20T13:05:58;22.70;1.00
12847;DHT22;6492;48.128;8.320;2023-05-20T13:10:00;22.70;1.00
12847;DHT22;6492;48.128;8.320;2023-05-20T13:14:02;22.60;1.00
12847;DHT22;6492;48.128;8.320;2023-05-20T13:18:04;22.30;1.00
12847;DHT22;6492;48.128;8.320;2023-05-20T13:22:07;22.20;1.00
12847;DHT22;6492;48.128;8.320;2023-05-20T13:26:09;22.30;1.00
12847;DHT22;6492;48.128;8.320;2023-05-20T13:30:11;22.00;1.00
12847;DHT22;6492;48.128;8.320;2023-05-20T13:34:13;22.10;1.00
12847;DHT22;6492;48.128;8.320;2023-05-20T13:38:16;22.40;1.00
12847;DHT22;6492;48.128;8.320;2023-05-20T13:42:18;22.20;1.00
12847;DHT22;6492;48.128;8.320;2023-05-20T13:46:20;21.90;1.00
12847;DHT22;6492;48.128;8.320;2023-05-20T13:50:22;21.60;1.00
12847;DHT22;6492;48.128;8.320;2023-05-20T13:54:26;21.40;1.00
12847;DHT22;6492;48.128;8.320;2023-05-20T13:58:28;21.30;1.50
12847;DHT22;6492;48.128;8.320;2023-05-20T14:02:30;21.30;1.00
12847;DHT22;6492;48.128;8.320;2023-05-20T14:07:00;21.10;1.00
12847;DHT22;6492;48.128;8.320;2023-05-20T14:11:04;21.10;1.00
12847;DHT22;6492;48.128;8.320;2023-05-20T14:15:06;21.00;1.00
12847;DHT22;6492;48.128;8.320;2023-05-20T14:19:08;21.10;1.00
12847;DHT22;6492;48.128;8.320;2023-05-20T14:23:11;21.10;1.00
12847;DHT22;6492;48.128;8.320;2023-05-20T14:27:14;21.20;1.00
12847;DHT22;6492;48.128;8.320;2023-05-20T14:31:16;21.20;1.00
12847;DHT22;6492;48.128;8.320;2023-05-20T14:35:18;21.20;1.10
12847;DHT22;6492;48.128;8.320;2023-05-20T14:39:20;21.20;1.00
12847;DHT22;6492;48.128;8.320;2023-05-20T14:43:23;21.30;1.00
12847;DHT22;6492;48.128;8.320;2023-05-20T14:47:25;21.40;1.00
12847;DHT22;6492;48.128;8.320;2023-05-20T14:51:27;21.40;1.00
12847;DHT22;6492;48.128;8.320;2023-05-20T14:55:28;20.90;1.00
12847;DHT22;6492;48.128;8.320;2023-05-20T14:59:32;20.80;2.10
12847;DHT22;6492;48.128;8.320;2023-05-20T15:03:34;20.70;1.90
12847;DHT22;6492;48.128;8.320;2023-05-20T15:07:38;20.50;2.40
12847;DHT22;6492;48.128;8.320;2023-05-20T15:11:40;20.40;3.20
12847;DHT22;6492;48.128;8.320;2023-05-20T15:16:02;20.40;3.30
12847;DHT22;6492;48.128;8.320;2023-05-20T15:20:05;20.50;3.40
12847;DHT22;6492;48.128;8.320;2023-05-20T15:24:07;20.50;3.00
12847;DHT22;6492;48.128;8.320;2023-05-20T15:28:09;20.70;4.00
12847;DHT22;6492;48.128;8.320;2023-05-20T15:32:13;21.00;3.70
12847;DHT22;6492;48.128;8.320;2023-05-20T15:36:15;21.30;2.90
12847;DHT22;6492;48.128;8.320;2023-05-20T15:40:17;21.40;2.30
12847;DHT22;6492;48.128;8.320;2023-05-20T15:44:19;21.50;1.70
12847;DHT22;6492;48.128;8.320;2023-05-20T15:48:23;21.50;1.80
12847;DHT22;6492;48.128;8.320;2023-05-20T15:52:25;21.40;1.30
12847;DHT22;6492;48.128;8.320;2023-05-20T15:56:28;21.30;1.70
12847;DHT22;6492;48.128;8.320;2023-05-20T16:00:30;21.10;2.50
12847;DHT22;6492;48.128;8.320;2023-05-20T16:04:37;21.00;2.40
12847;DHT22;6492;48.128;8.320;2023-05-20T16:08:42;20.90;3.20
12847;DHT22;6492;48.128;8.320;2023-05-20T16:12:44;21.00;2.50
12847;DHT22;6492;48.128;8.320;2023-05-20T16:16:50;21.00;2.70
12847;DHT22;6492;48.128;8.320;2023-05-20T16:20:54;21.20;3.20
12847;DHT22;6492;48.128;8.320;2023-05-20T16:24:55;21.40;1.80
12847;DHT22;6492;48.128;8.320;2023-05-20T16:28:57;21.50;1.80
12847;DHT22;6492;48.128;8.320;2023-05-20T16:33:00;21.50;2.00
12847;DHT22;6492;48.128;8.320;2023-05-20T16:37:03;21.50;2.10
12847;DHT22;6492;48.128;8.320;2023-05-20T16:41:05;21.60;1.80
12847;DHT22;6492;48.128;8.320;2023-05-20T16:45:13;21.50;1.00
12847;DHT22;6492;48.128;8.320;2023-05-20T16:49:28;21.30;1.30
12847;DHT22;6492;48.128;8.320;2023-05-20T16:53:31;20.90;1.70
12847;DHT22;6492;48.128;8.320;2023-05-20T16:57:33;20.70;2.60
12847;DHT22;6492;48.128;8.320;2023-05-20T17:01:34;20.20;2.50
12847;DHT22;6492;48.128;8.320;2023-05-20T17:05:36;20.00;3.20
12847;DHT22;6492;48.128;8.320;2023-05-20T17:09:40;19.70;4.40
12847;DHT22;6492;48.128;8.320;2023-05-20T17:14:15;19.50;3.80
12847;DHT22;6492;48.128;8.320;2023-05-20T17:18:17;19.30;5.30
12847;DHT22;6492;48.128;8.320;2023-05-20T17:22:19;19.20;4.90
12847;DHT22;6492;48.128;8.320;2023-05-20T17:26:23;18.90;6.70
12847;DHT22;6492;48.128;8.320;2023-05-20T17:30:25;18.80;7.20
12847;DHT22;6492;48.128;8.320;2023-05-20T17:34:27;18.60;7.60
12847;DHT22;6492;48.128;8.320;2023-05-20T17:38:29;18.40;8.30
12847;DHT22;6492;48.128;8.320;2023-05-20T17:42:33;18.10;8.40
12847;DHT22;6492;48.128;8.320;2023-05-20T17:46:45;17.90;10.40
12847;DHT22;6492;48.128;8.320;2023-05-20T17:50:48;17.70;10.30
12847;DHT22;6492;48.128;8.320;2023-05-20T17:54:49;17.50;10.90
12847;DHT22;6492;48.128;8.320;2023-05-20T17:58:53;17.40;11.50
12847;DHT22;6492;48.128;8.320;2023-05-20T18:02:55;17.20;12.00
12847;DHT22;6492;48.128;8.320;2023-05-20T18:06:58;16.90;12.20
12847;DHT22;6492;48.128;8.320;2023-05-20T18:11:00;16.60;13.60
12847;DHT22;6492;48.128;8.320;2023-05-20T18:15:08;16.40;14.50
12847;DHT22;6492;48.128;8.320;2023-05-20T18:19:14;16.10;15.50
12847;DHT22;6492;48.128;8.320;2023-05-20T18:23:16;15.90;17.10
12847;DHT22;6492;48.128;8.320;2023-05-20T18:27:17;15.70;18.70
12847;DHT22;6492;48.128;8.320;2023-05-20T18:31:21;15.40;19.90
12847;DHT22;6492;48.128;8.320;2023-05-20T18:35:22;15.20;20.10
12847;DHT22;6492;48.128;8.320;2023-05-20T18:39:24;14.90;21.50
12847;DHT22;6492;48.128;8.320;2023-05-20T18:43:26;14.70;22.80
12847;DHT22;6492;48.128;8.320;2023-05-20T18:47:29;14.50;24.10
12847;DHT22;6492;48.128;8.320;2023-05-20T18:51:31;14.20;24.80
12847;DHT22;6492;48.128;8.320;2023-05-20T18:55:33;14.10;25.70
12847;DHT22;6492;48.128;8.320;2023-05-20T18:59:35;14.00;27.40
12847;DHT22;6492;48.128;8.320;2023-05-20T19:03:40;13.90;28.70
12847;DHT22;6492;48.128;8.320;2023-05-20T19:07:43;13.80;29.30
12847;DHT22;6492;48.128;8.320;2023-05-20T19:11:45;13.70;29.60
12847;DHT22;6492;48.128;8.320;2023-05-20T19:15:47;13.60;30.00
12847;DHT22;6492;48.128;8.320;2023-05-20T19:19:50;13.50;31.10
12847;DHT22;6492;48.128;8.320;2023-05-20T19:24:22;13.40;31.40
12847;DHT22;6492;48.128;8.320;2023-05-20T19:28:23;13.20;32.70
12847;DHT22;6492;48.128;8.320;2023-05-20T19:32:25;13.10;34.20
12847;DHT22;6492;48.128;8.320;2023-05-20T19:36:28;12.90;34.40
12847;DHT22;6492;48.128;8.320;2023-05-20T19:40:30;12.80;35.30
12847;DHT22;6492;48.128;8.320;2023-05-20T19:44:43;12.70;35.70
12847;DHT22;6492;48.128;8.320;2023-05-20T19:48:45;12.60;36.90
12847;DHT22;6492;48.128;8.320;2023-05-20T19:52:49;12.50;38.00
12847;DHT22;6492;48.128;8.320;2023-05-20T19:56:50;12.40;38.10
12847;DHT22;6492;48.128;8.320;2023-05-20T20:00:52;12.30;38.50
12847;DHT22;6492;48.128;8.320;2023-05-20T20:04:54;12.20;39.20
12847;DHT22;6492;48.128;8.320;2023-05-20T20:08:57;12.20;40.90
12847;DHT22;6492;48.128;8.320;2023-05-20T20:12:59;12.10;42.40
12847;DHT22;6492;48.128;8.320;2023-05-20T20:17:01;12.20;44.40
12847;DHT22;6492;48.128;8.320;2023-05-20T20:21:02;12.20;44.60
12847;DHT22;6492;48.128;8.320;2023-05-20T20:25:09;12.10;44.00
12847;DHT22;6492;48.128;8.320;2023-05-20T20:29:13;12.10;46.00
12847;DHT22;6492;48.128;8.320;2023-05-20T20:33:15;12.10;47.00
12847;DHT22;6492;48.128;8.320;2023-05-20T20:37:17;12.00;48.40
12847;DHT22;6492;48.128;8.320;2023-05-20T20:41:23;11.90;50.10
12847;DHT22;6492;48.128;8.320;2023-05-20T20:45:25;11.90;49.90
12847;DHT22;6492;48.128;8.320;2023-05-20T20:53:57;11.80;51.80
12847;DHT22;6492;48.128;8.320;2023-05-20T20:58:00;11.80;53.20
12847;DHT22;6492;48.128;8.320;2023-05-20T21:02:19;11.70;53.90
12847;DHT22;6492;48.128;8.320;2023-05-20T21:06:21;11.70;55.20
12847;DHT22;6492;48.128;8.320;2023-05-20T21:10:25;11.60;55.50
12847;DHT22;6492;48.128;8.320;2023-05-20T21:14:30;11.60;56.10
12847;DHT22;6492;48.128;8.320;2023-05-20T21:18:33;11.60;56.80
12847;DHT22;6492;48.128;8.320;2023-05-20T21:22:35;11.50;58.00
12847;DHT22;6492;48.128;8.320;2023-05-20T21:26:37;11.50;59.30
12847;DHT22;6492;48.128;8.320;2023-05-20T21:30:53;11.50;59.40
12847;DHT22;6492;48.128;8.320;2023-05-20T21:34:55;11.50;61.00
12847;DHT22;6492;48.128;8.320;2023-05-20T21:38:57;11.40;61.40
12847;DHT22;6492;48.128;8.320;2023-05-20T21:43:01;11.40;62.20
12847;DHT22;6492;48.128;8.320;2023-05-20T21:47:05;11.40;63.50
12847;DHT22;6492;48.128;8.320;2023-05-20T21:51:06;11.30;64.20
12847;DHT22;6492;48.128;8.320;2023-05-20T21:55:09;11.30;64.70
12847;DHT22;6492;48.128;8.320;2023-05-20T21:59:11;11.30;65.20
12847;DHT22;6492;48.128;8.320;2023-05-20T22:03:15;11.30;65.30
12847;DHT22;6492;48.128;8.320;2023-05-20T22:07:17;11.20;65.60
12847;DHT22;6492;48.128;8.320;2023-05-20T22:11:19;11.20;66.20
12847;DHT22;6492;48.128;8.320;2023-05-20T22:15:27;11.20;67.10
12847;DHT22;6492;48.128;8.320;2023-05-20T22:19:30;11.20;67.00
12847;DHT22;6492;48.128;8.320;2023-05-20T22:23:31;11.20;67.00
12847;DHT22;6492;48.128;8.320;2023-05-20T22:27:33;11.10;67.60
12847;DHT22;6492;48.128;8.320;2023-05-20T22:31:35;11.10;68.10
12847;DHT22;6492;48.128;8.320;2023-05-20T22:35:38;11.10;68.50
12847;DHT22;6492;48.128;8.320;2023-05-20T22:39:40;11.20;69.00
12847;DHT22;6492;48.128;8.320;2023-05-20T22:43:42;11.20;69.30
12847;DHT22;6492;48.128;8.320;2023-05-20T22:47:44;11.20;69.30
12847;DHT22;6492;48.128;8.320;2023-05-20T22:51:47;11.20;69.80
12847;DHT22;6492;48.128;8.320;2023-05-20T22:55:49;11.20;70.20
12847;DHT22;6492;48.128;8.320;2023-05-20T23:00:27;11.20;70.20
12847;DHT22;6492;48.128;8.320;2023-05-20T23:04:28;11.20;70.00
12847;DHT22;6492;48.128;8.320;2023-05-20T23:08:32;11.20;70.20
12847;DHT22;6492;48.128;8.320;2023-05-20T23:12:33;11.20;70.20
12847;DHT22;6492;48.128;8.320;2023-05-20T23:16:35;11.30;70.10
12847;DHT22;6492;48.128;8.320;2023-05-20T23:20:39;11.20;70.10
12847;DHT22;6492;48.128;8.320;2023-05-20T23:24:42;11.20;70.30
12847;DHT22;6492;48.128;8.320;2023-05-20T23:28:44;11.20;70.50
12847;DHT22;6492;48.128;8.320;2023-05-20T23:32:47;11.20;70.40
12847;DHT22;6492;48.128;8.320;2023-05-20T23:36:49;11.20;70.50
12847;DHT22;6492;48.128;8.320;2023-05-20T23:40:53;11.10;70.90
12847;DHT22;6492;48.128;8.320;2023-05-20T23:44:55;11.10;70.80
12847;DHT22;6492;48.128;8.320;2023-05-20T23:48:57;11.00;70.90
12847;DHT22;6492;48.128;8.320;2023-05-20T23:52:59;11.00;71.10
12847;DHT22;6492;48.128;8.320;2023-05-20T23:57:36;11.00;71.40
